Time;durP1;ratioP1;P1;durP2;ratioP2;P2;SDS_P1;SDS_P2;PMS_P1;PMS_P2;Temp;Humidity;BMP_temperature;BMP_pressure;BME280_temperature;BME280_humidity;BME280_pressure;Samples;Min_cycle;Max_cycle;Signal;HPM_P1;HPM_P2
2022/01/23 00:04:43;;;;;;;35.90;13.50;;;;;;;-2.50;74.48;100906.52;206994;1318;141918;-67
2022/01/23 00:09:54;;;;;;;24.00;10.50;;;;;;;-2.53;74.66;100907.44;207271;1318;141011;-68
2022/01/23 00:20:26;;;;;;;23.30;10.90;;;;;;;-2.56;74.54;100910.10;207930;1318;141397;-66
2022/01/23 00:30:54;;;;;;;22.50;10.30;;;;;;;-2.52;74.80;100900.20;208149;1318;141593;-67
2022/01/23 00:35:58;;;;;;;31.50;14.50;;;;;;;-2.55;74.79;100901.84;207041;1318;140573;-65
2022/01/23 00:41:02;;;;;;;20.90;10.40;;;;;;;-2.56;74.91;100907.52;207021;1318;141153;-65
2022/01/23 00:46:18;;;;;;;32.90;13.90;;;;;;;-2.61;74.92;100904.10;208026;1317;142889;-65
2022/01/23 00:51:22;;;;;;;31.60;13.60;;;;;;;-2.66;74.93;100904.96;207743;1318;140561;-65
2022/01/23 00:56:30;;;;;;;27.20;12.30;;;;;;;-2.73;74.85;100906.91;207011;1318;141139;-66
2022/01/23 01:01:36;;;;;;;27.70;11.00;;;;;;;-2.79;74.70;100896.48;207653;1318;223673;-67
2022/01/23 01:06:45;;;;;;;30.50;13.50;;;;;;;-2.77;74.89;100890.93;208188;1318;140617;-67
2022/01/23 01:12:02;;;;;;;25.30;9.90;;;;;;;-2.79;74.83;100889.36;207560;1318;142118;-70
2022/01/23 01:33:17;;;;;;;24.30;11.20;;;;;;;-2.85;74.99;100906.87;209165;1318;140732;-68
2022/01/23 01:38:20;;;;;;;27.40;12.70;;;;;;;-2.86;74.88;100918.56;207776;1318;140244;-70
2022/01/23 01:43:25;;;;;;;32.90;15.50;;;;;;;-2.84;74.76;100919.47;208149;1318;140739;-70
2022/01/23 01:48:28;;;;;;;23.50;11.20;;;;;;;-2.84;74.95;100924.02;207669;1318;140090;-67
2022/01/23 01:53:35;;;;;;;25.10;12.00;;;;;;;-2.83;75.03;100926.16;206981;1319;142221;-71
2022/01/23 02:09:12;;;;;;;30.00;14.00;;;;;;;-2.99;75.21;100908.99;207405;1321;139793;-70
2022/01/23 02:14:32;;;;;;;23.60;13.70;;;;;;;-3.11;75.24;100914.42;207027;1318;140466;-68
2022/01/23 02:25:17;;;;;;;25.90;13.20;;;;;;;-3.25;75.21;100921.27;207874;1318;140532;-68
2022/01/23 02:53:34;;;;;;;24.10;12.30;;;;;;;-3.42;75.67;100915.46;208763;1318;140156;-69
2022/01/23 03:02:52;;;;;;;27.60;13.90;;;;;;;-3.39;75.68;100923.57;207652;1319;139621;-72
2022/01/23 03:29:21;;;;;;;32.80;15.30;;;;;;;-3.25;76.24;100940.02;208868;1318;141231;-70
2022/01/23 03:34:26;;;;;;;31.30;14.20;;;;;;;-3.20;76.03;100944.89;209552;1318;141168;-72
2022/01/23 03:39:28;;;;;;;30.40;14.90;;;;;;;-3.14;76.04;100953.29;209508;1318;140674;-71
2022/01/23 03:44:38;;;;;;;33.90;15.70;;;;;;;-3.11;76.22;100953.71;208879;1318;141887;-70
2022/01/23 03:49:42;;;;;;;38.40;19.90;;;;;;;-3.03;76.42;100945.98;208354;1318;141541;-67
2022/01/23 03:54:46;;;;;;;38.80;18.50;;;;;;;-3.00;76.45;100940.39;207951;1319;143403;-68
2022/01/23 03:59:49;;;;;;;35.60;17.00;;;;;;;-3.04;76.22;100938.06;207468;1318;141302;-68
2022/01/23 04:04:51;;;;;;;34.10;16.20;;;;;;;-2.99;76.30;100943.98;206972;1318;141048;-68
2022/01/23 04:09:54;;;;;;;29.90;14.90;;;;;;;-2.95;76.54;100962.08;207683;1318;141863;-68
2022/01/23 04:15:21;;;;;;;31.80;14.10;;;;;;;-2.91;76.74;100964.69;207062;1318;141305;-70
2022/01/23 05:03:45;;;;;;;33.10;14.00;;;;;;;-2.80;77.10;100984.06;206929;1316;141030;-67
2022/01/23 05:08:21;;;;;;;33.10;16.10;;;;;;;-2.81;77.37;100989.30;207551;1318;140721;-68
2022/01/23 05:13:27;;;;;;;28.80;13.70;;;;;;;-2.81;77.42;100993.12;204841;1318;3374248;-65
2022/01/23 05:18:35;;;;;;;27.90;13.20;;;;;;;-2.75;77.43;101005.19;206933;1318;140576;-68
2022/01/23 05:23:41;;;;;;;29.40;16.10;;;;;;;-2.68;77.43;101008.13;208173;1318;142751;-68
2022/01/23 05:28:46;;;;;;;33.80;15.00;;;;;;;-2.63;77.76;101010.01;207621;1318;140890;-68
2022/01/23 05:33:53;;;;;;;26.90;13.70;;;;;;;-2.60;77.57;101017.32;208004;1318;142413;-69
2022/01/23 05:38:56;;;;;;;28.90;11.80;;;;;;;-2.61;77.48;101019.10;207549;1318;141610;-67
2022/01/23 05:44:02;;;;;;;30.30;12.70;;;;;;;-2.57;77.55;101024.56;209125;1318;141152;-70
2022/01/23 05:49:06;;;;;;;25.40;13.00;;;;;;;-2.48;77.54;101032.73;209505;1319;141332;-71
2022/01/23 05:54:09;;;;;;;24.70;13.50;;;;;;;-2.38;77.55;101035.20;209314;1318;140729;-71
2022/01/23 05:59:16;;;;;;;27.00;13.10;;;;;;;-2.31;77.66;101026.48;208196;1318;141119;-69
2022/01/23 06:04:20;;;;;;;27.50;13.10;;;;;;;-2.28;77.54;101026.27;207712;1318;142719;-67
2022/01/23 06:09:23;;;;;;;22.40;13.30;;;;;;;-2.29;77.60;101037.65;207123;1318;140800;-69
2022/01/23 06:14:26;;;;;;;26.20;12.80;;;;;;;-2.30;77.62;101035.64;208267;1319;141811;-70
2022/01/23 06:19:33;;;;;;;19.60;11.10;;;;;;;-2.29;77.68;101042.89;207784;1318;141184;-68
2022/01/23 06:24:44;;;;;;;26.30;12.10;;;;;;;-2.20;77.65;101059.96;207285;1318;142452;-70
2022/01/23 06:29:50;;;;;;;24.00;11.50;;;;;;;-2.16;77.55;101081.36;208507;1318;139926;-71
2022/01/23 06:34:56;;;;;;;24.20;13.20;;;;;;;-2.13;77.63;101098.91;207467;1319;140523;-68
2022/01/23 06:39:59;;;;;;;27.60;12.80;;;;;;;-2.11;77.84;101098.55;207214;1318;140061;-70
2022/01/23 06:45:02;;;;;;;24.00;11.90;;;;;;;-2.11;77.83;101086.86;207378;1319;141618;-69
2022/01/23 06:50:05;;;;;;;25.20;12.50;;;;;;;-2.11;77.86;101089.80;207588;1318;140775;-69
2022/01/23 06:55:09;;;;;;;25.30;11.40;;;;;;;-2.06;77.88;101082.14;207657;1319;141685;-67
2022/01/23 07:00:12;;;;;;;24.80;12.20;;;;;;;-1.99;77.80;101077.11;207689;1317;140157;-69
2022/01/23 07:05:15;;;;;;;23.90;11.30;;;;;;;-2.00;77.86;101077.83;207791;1318;142099;-67
2022/01/23 07:10:25;;;;;;;25.50;13.10;;;;;;;-1.99;77.93;101086.44;207217;1318;142352;-68
2022/01/23 07:15:28;;;;;;;32.40;18.50;;;;;;;-1.98;78.06;101097.72;208014;1321;140512;-68
2022/01/23 07:20:33;;;;;;;36.80;16.40;;;;;;;-1.97;78.00;101104.44;207113;1318;140253;-69
2022/01/23 07:25:38;;;;;;;33.20;15.10;;;;;;;-1.95;77.97;101119.10;208386;1318;140711;-66
2022/01/23 07:30:51;;;;;;;44.60;18.60;;;;;;;-1.90;77.81;101135.07;208850;1318;141543;-69
2022/01/23 07:35:55;;;;;;;36.50;18.50;;;;;;;-1.80;77.96;101141.60;206937;1318;142475;-68
2022/01/23 07:40:58;;;;;;;35.00;15.30;;;;;;;-1.71;77.91;101147.30;207442;1318;153450;-70
2022/01/23 07:46:01;;;;;;;33.60;18.20;;;;;;;-1.63;78.02;101158.77;209252;1319;142367;-68
2022/01/23 07:51:04;;;;;;;30.50;13.40;;;;;;;-1.58;78.16;101156.05;209503;1318;140826;-67
2022/01/23 07:56:07;;;;;;;20.50;13.10;;;;;;;-1.51;77.94;101166.29;209038;1318;141717;-68
2022/01/23 08:01:10;;;;;;;27.60;13.00;;;;;;;-1.46;77.81;101174.27;208786;1318;141870;-69
2022/01/23 08:06:13;;;;;;;22.40;14.40;;;;;;;-1.32;77.84;101185.19;208778;1319;143055;-71
2022/01/23 08:11:17;;;;;;;28.00;14.10;;;;;;;-1.21;77.56;101191.95;207813;1319;141917;-68
2022/01/23 08:16:21;;;;;;;29.30;13.10;;;;;;;-1.14;77.74;101198.88;208001;1319;141524;-67
2022/01/23 08:21:24;;;;;;;27.10;13.60;;;;;;;-1.10;77.78;101196.94;207720;1318;140887;-69
2022/01/23 08:26:31;;;;;;;30.30;13.40;;;;;;;-1.07;77.57;101202.84;207458;1318;142875;-68
2022/01/23 08:31:37;;;;;;;28.60;15.60;;;;;;;-1.08;77.52;101212.48;207381;1318;140299;-69
2022/01/23 08:36:41;;;;;;;24.40;12.90;;;;;;;-1.03;77.45;101210.06;207874;1319;141236;-69
2022/01/23 08:41:53;;;;;;;25.00;13.80;;;;;;;-0.95;77.57;101211.66;207389;1317;140994;-71
2022/01/23 08:46:57;;;;;;;27.30;14.50;;;;;;;-0.88;77.36;101212.15;207162;1318;141504;-72
2022/01/23 08:52:05;;;;;;;20.80;13.10;;;;;;;-0.77;77.71;101226.42;207546;1318;151473;-72
2022/01/23 08:57:08;;;;;;;22.70;12.50;;;;;;;-0.68;77.75;101240.90;206890;1319;142051;-68
2022/01/23 09:02:11;;;;;;;19.60;10.80;;;;;;;-0.64;77.48;101244.21;206871;1318;142318;-69
2022/01/23 09:07:15;;;;;;;28.90;14.10;;;;;;;-0.62;77.52;101245.90;208148;1319;140872;-70
2022/01/23 09:17:48;;;;;;;;;;;;;;;-0.39;77.32;101258.48;207068;1318;140119;-66
2022/01/23 09:22:52;;;;;;;19.00;10.90;;;;;;;-0.34;77.14;101262.31;208263;1318;126418;-71
2022/01/23 09:28:03;;;;;;;23.00;12.60;;;;;;;-0.26;77.28;101264.48;207438;1318;141335;-74
2022/01/23 09:33:37;;;;;;;22.10;9.20;;;;;;;-0.21;77.13;101264.04;208370;1318;140418;-72
2022/01/23 09:39:04;;;;;;;16.20;10.10;;;;;;;-0.16;76.70;101260.82;208129;1318;139647;-69
2022/01/23 09:44:36;;;;;;;16.40;8.90;;;;;;;-0.04;76.53;101256.11;208007;1318;140657;-71
2022/01/23 09:49:41;;;;;;;22.00;12.10;;;;;;;0.07;76.49;101255.52;209299;1320;141032;-69
2022/01/23 09:55:09;;;;;;;17.40;10.10;;;;;;;0.18;76.19;101251.98;208421;1320;140675;-68
2022/01/23 10:00:17;;;;;;;18.90;9.10;;;;;;;0.27;76.36;101253.09;209205;1319;139795;-68
2022/01/23 10:05:21;;;;;;;22.80;11.00;;;;;;;0.40;76.06;101256.52;208218;1323;139730;-67
2022/01/23 10:10:31;;;;;;;18.40;9.70;;;;;;;0.49;75.78;101256.80;208579;1319;140889;-68
2022/01/23 10:15:34;;;;;;;19.70;10.20;;;;;;;0.55;75.89;101258.54;208682;1320;141020;-71
2022/01/23 10:20:38;;;;;;;19.60;11.60;;;;;;;0.66;75.83;101252.67;208105;1318;140612;-68
2022/01/23 10:25:47;;;;;;;18.10;8.90;;;;;;;0.75;75.51;101246.68;207341;1319;222422;-69
2022/01/23 10:31:04;;;;;;;15.40;9.60;;;;;;;0.88;75.51;101246.89;207866;1317;140109;-69
2022/01/23 10:36:15;;;;;;;19.40;9.60;;;;;;;0.99;75.14;101250.31;208341;1324;140588;-67
2022/01/23 10:47:17;;;;;;;25.00;12.10;;;;;;;1.21;74.49;101256.06;208527;1320;140402;-69
2022/01/23 10:52:03;;;;;;;18.90;10.50;;;;;;;1.32;74.70;101256.92;208243;1323;139326;-70
2022/01/23 10:57:07;;;;;;;19.50;10.40;;;;;;;1.42;74.64;101258.19;206817;1318;139908;-68
2022/01/23 11:02:27;;;;;;;;;;;;;;;;;;;;;
2022/01/23 11:07:31;;;;;;;19.20;9.90;;;;;;;1.46;74.35;101254.13;207592;1319;140978;-68
2022/01/23 11:17:54;;;;;;;15.00;9.70;;;;;;;1.57;74.00;101259.22;207066;1319;140074;-70
2022/01/23 11:23:15;;;;;;;22.10;10.70;;;;;;;1.59;73.77;101268.52;206782;1319;139315;-69
2022/01/23 11:28:20;;;;;;;18.00;8.70;;;;;;;1.61;74.19;101268.35;208049;1319;139593;-68
2022/01/23 11:33:29;;;;;;;16.00;9.00;;;;;;;1.59;73.91;101266.80;207327;1319;141541;-69
2022/01/23 11:38:43;;;;;;;16.70;9.60;;;;;;;1.55;73.39;101269.63;208019;1318;140742;-69
2022/01/23 11:54:52;;;;;;;20.00;10.00;;;;;;;1.57;73.74;101265.22;208465;1318;140343;-70
2022/01/23 12:00:22;;;;;;;13.60;8.80;;;;;;;1.61;73.27;101262.05;207472;1321;139856;-69
2022/01/23 12:05:29;;;;;;;18.30;10.40;;;;;;;1.67;73.49;101268.52;208611;1319;140687;-69
2022/01/23 12:10:48;;;;;;;18.00;9.70;;;;;;;1.70;73.09;101270.86;208160;1325;140637;-70
2022/01/23 12:22:01;;;;;;;22.00;9.00;;;;;;;1.85;73.01;101283.84;209140;1319;139963;-66
2022/01/23 12:27:26;;;;;;;18.80;11.30;;;;;;;1.88;73.07;101279.22;208737;1320;139784;-70
2022/01/23 12:32:35;;;;;;;23.60;10.70;;;;;;;1.96;72.83;101277.89;207131;1321;141161;-70
2022/01/23 12:38:20;;;;;;;31.40;12.90;;;;;;;2.04;72.72;101277.74;208133;1319;140466;-70
2022/01/23 12:43:36;;;;;;;23.80;11.80;;;;;;;2.07;72.71;101282.89;207857;1319;141015;-68
2022/01/23 12:48:40;;;;;;;60.60;21.60;;;;;;;2.14;72.59;101281.14;207105;1316;142137;-68
2022/01/23 12:53:53;;;;;;;31.10;14.10;;;;;;;2.11;72.50;101282.55;207489;1318;140386;-69
2022/01/23 12:59:10;;;;;;;21.80;10.70;;;;;;;2.10;72.40;101289.28;207239;1320;142528;-68
2022/01/23 13:04:17;;;;;;;17.90;10.30;;;;;;;2.05;72.59;101303.77;207406;1315;141581;-66
2022/01/23 13:10:06;;;;;;;24.80;10.00;;;;;;;2.00;72.71;101307.92;207697;1320;141371;-69
2022/01/23 13:15:59;;;;;;;;;;;;;;;1.96;72.28;101319.47;205645;1318;3245967;-69
2022/01/23 13:26:56;;;;;;;12.40;8.90;;;;;;;1.84;72.40;101336.17;207370;1318;140101;-68
2022/01/23 13:32:19;;;;;;;21.90;12.50;;;;;;;1.73;72.60;101343.84;207300;1318;139944;-68
2022/01/23 13:37:28;;;;;;;22.00;10.90;;;;;;;1.71;72.88;101348.10;207192;1318;139230;-68
2022/01/23 13:49:02;;;;;;;30.20;16.60;;;;;;;1.68;72.75;101344.27;207851;1318;141520;-67
2022/01/23 13:59:43;;;;;;;26.30;15.00;;;;;;;1.65;72.80;101339.33;208928;1319;140493;-70
2022/01/23 14:05:03;;;;;;;28.30;14.60;;;;;;;1.63;72.97;101340.04;207643;1318;140431;-70
2022/01/23 14:10:53;;;;;;;27.90;13.70;;;;;;;1.51;72.73;101343.55;208682;1317;139685;-74
2022/01/23 14:15:56;;;;;;;21.00;10.80;;;;;;;1.37;73.05;101344.44;207335;1319;141009;-72
2022/01/23 14:21:09;;;;;;;21.70;10.90;;;;;;;1.29;72.85;101352.14;209147;1318;141096;-71
2022/01/23 14:26:13;;;;;;;27.50;13.60;;;;;;;1.30;72.88;101347.20;209465;1318;141368;-71
2022/01/23 14:31:20;;;;;;;19.40;12.60;;;;;;;1.30;72.82;101350.63;208046;1318;142144;-69
2022/01/23 14:36:59;;;;;;;26.50;13.50;;;;;;;1.29;73.56;101357.77;209313;1319;141082;-70
2022/01/23 14:42:33;;;;;;;30.00;15.10;;;;;;;1.25;72.84;101363.19;207767;1320;139697;-69
2022/01/23 14:47:43;;;;;;;29.60;17.30;;;;;;;1.18;73.23;101364.54;207949;1319;140487;-70
2022/01/23 14:52:48;;;;;;;27.50;14.40;;;;;;;1.13;73.25;101362.34;207830;1318;139962;-70
2022/01/23 14:58:00;;;;;;;25.80;14.80;;;;;;;1.02;73.04;101359.92;207300;1318;141053;-70
2022/01/23 15:03:05;;;;;;;33.50;16.10;;;;;;;0.93;73.45;101358.80;207123;1318;139867;-68
2022/01/23 15:08:12;;;;;;;28.00;16.10;;;;;;;0.91;73.19;101363.59;207426;1318;139783;-66
2022/01/23 15:13:19;;;;;;;28.50;17.20;;;;;;;0.89;73.44;101363.04;207740;1318;140879;-65
2022/01/23 15:18:23;;;;;;;;;;;;;;;0.85;74.04;101372.14;207103;1318;141730;-67
2022/01/23 15:23:25;;;;;;;29.00;16.00;;;;;;;0.80;73.82;101380.10;208713;1319;126868;-67
2022/01/23 15:28:28;;;;;;;28.50;17.00;;;;;;;0.76;74.02;101381.87;207215;1318;142562;-69
2022/01/23 15:33:32;;;;;;;23.30;15.00;;;;;;;0.70;74.37;101387.20;207130;1319;141219;-68
2022/01/23 15:38:41;;;;;;;35.50;14.80;;;;;;;0.66;74.40;101380.57;206675;1315;140160;-67
2022/01/23 15:43:44;;;;;;;32.60;15.60;;;;;;;0.66;74.26;101385.51;208079;1319;140703;-70
2022/01/23 15:48:57;;;;;;;31.90;15.50;;;;;;;0.67;74.09;101386.63;207043;1318;140546;-67
2022/01/23 15:54:03;;;;;;;29.60;16.50;;;;;;;0.60;74.32;101398.06;206861;1318;140443;-67
2022/01/23 15:59:08;;;;;;;31.50;16.90;;;;;;;0.55;74.61;101409.36;207605;1318;140800;-67
2022/01/23 16:04:11;;;;;;;29.10;15.80;;;;;;;0.46;74.40;101411.65;207863;1318;141616;-67
2022/01/23 16:09:17;;;;;;;31.10;16.10;;;;;;;0.38;74.43;101413.05;208717;1314;141621;-66
2022/01/23 16:14:20;;;;;;;28.10;15.30;;;;;;;0.32;74.58;101419.13;208340;1318;140416;-68
2022/01/23 16:19:22;;;;;;;32.30;15.90;;;;;;;0.38;74.45;101416.52;208552;1319;140505;-66
2022/01/23 16:24:27;;;;;;;35.00;17.40;;;;;;;0.42;74.62;101414.63;208886;1318;140747;-66
2022/01/23 16:29:31;;;;;;;28.30;15.20;;;;;;;0.46;74.63;101413.95;208955;1316;150172;-67
2022/01/23 16:34:36;;;;;;;40.90;19.60;;;;;;;0.51;74.76;101408.12;207663;1318;140460;-66
2022/01/23 16:39:40;;;;;;;30.60;16.40;;;;;;;0.51;74.73;101401.48;207425;1318;141553;-73
2022/01/23 16:44:44;;;;;;;54.20;24.40;;;;;;;0.41;74.74;101402.49;208464;1318;141937;-74
2022/01/23 16:49:50;;;;;;;55.10;27.70;;;;;;;0.38;74.87;101413.63;207580;1318;231992;-68
2022/01/23 16:55:02;;;;;;;57.40;27.50;;;;;;;0.40;75.11;101416.55;207864;1318;143995;-68
2022/01/23 17:00:07;;;;;;;58.60;24.30;;;;;;;0.43;75.19;101420.38;207303;1318;140488;-69
2022/01/23 17:05:23;;;;;;;50.00;23.90;;;;;;;0.44;75.32;101422.49;207409;1318;140340;-68
2022/01/23 17:10:27;;;;;;;45.70;21.60;;;;;;;0.42;75.56;101425.02;206835;1318;140749;-69
2022/01/23 17:15:44;;;;;;;40.50;19.80;;;;;;;0.39;75.70;101427.16;207364;1319;142257;-67
2022/01/23 17:20:58;;;;;;;45.20;23.10;;;;;;;0.39;75.82;101425.02;207191;1318;143031;-67
2022/01/23 17:26:03;;;;;;;44.20;24.20;;;;;;;0.38;75.57;101422.50;206929;1318;141820;-68
2022/01/23 17:31:06;;;;;;;41.40;21.80;;;;;;;0.40;75.79;101417.48;207130;1319;140223;-66
2022/01/23 17:36:13;;;;;;;36.20;19.70;;;;;;;0.41;76.14;101422.48;206887;1318;140986;-67
2022/01/23 17:41:16;;;;;;;39.10;19.90;;;;;;;0.36;76.19;101430.05;207586;1318;142133;-66
2022/01/23 17:46:24;;;;;;;40.50;18.00;;;;;;;0.30;76.03;101435.92;207192;1318;140275;-67
2022/01/23 17:51:32;;;;;;;35.60;16.50;;;;;;;0.31;76.00;101439.30;207341;1318;141272;-68
2022/01/23 17:56:38;;;;;;;41.10;19.90;;;;;;;0.30;75.93;101446.20;207412;1318;141771;-69
2022/01/23 18:01:41;;;;;;;41.10;19.60;;;;;;;0.28;76.33;101456.38;208088;1318;140443;-67
2022/01/23 18:06:52;;;;;;;35.50;19.10;;;;;;;0.23;76.12;101457.14;206652;1318;139448;-66
2022/01/23 18:12:03;;;;;;;41.80;20.00;;;;;;;0.15;76.04;101460.23;208596;1316;141107;-70
2022/01/23 18:17:21;;;;;;;34.00;20.90;;;;;;;0.07;75.89;101466.34;207022;1316;139942;-68
2022/01/23 18:22:49;;;;;;;61.20;27.60;;;;;;;-0.01;76.12;101468.52;207993;1318;139980;-68
2022/01/23 18:27:57;;;;;;;54.10;33.40;;;;;;;0.00;76.04;101475.42;207997;1317;140825;-66
2022/01/23 18:33:02;;;;;;;60.40;29.60;;;;;;;0.03;76.17;101482.36;208505;1319;140031;-69
2022/01/23 18:38:05;;;;;;;58.50;28.40;;;;;;;0.10;76.69;101485.98;209561;1319;140411;-68
2022/01/23 18:43:15;;;;;;;52.30;28.00;;;;;;;0.15;76.51;101493.83;208697;1319;139625;-69
2022/01/23 18:48:28;;;;;;;51.30;24.40;;;;;;;0.20;76.80;101495.70;207805;1318;141756;-70
2022/01/23 18:53:47;;;;;;;65.00;33.00;;;;;;;0.30;76.81;101497.48;207214;1318;140781;-68
2022/01/23 18:58:57;;;;;;;62.60;33.80;;;;;;;0.33;76.65;101506.48;207703;1318;139896;-65
2022/01/23 19:04:04;;;;;;;54.20;28.80;;;;;;;0.28;76.50;101505.80;207573;1316;140334;-70
2022/01/23 19:09:23;;;;;;;43.30;25.40;;;;;;;0.17;76.53;101512.70;206765;1318;141307;-68
2022/01/23 19:14:27;;;;;;;47.70;27.20;;;;;;;0.11;76.82;101520.05;207109;1318;139711;-66
2022/01/23 19:19:39;;;;;;;47.90;23.80;;;;;;;0.07;76.91;101520.16;207193;1318;139210;-65
2022/01/23 19:24:47;;;;;;;38.00;21.50;;;;;;;0.09;76.65;101518.39;206958;1318;140142;-66
2022/01/23 19:29:51;;;;;;;45.40;23.40;;;;;;;0.09;76.94;101511.93;207367;1318;141477;-66
2022/01/23 19:34:54;;;;;;;42.90;24.00;;;;;;;0.11;77.18;101512.66;207919;1318;141045;-68
2022/01/23 19:39:56;;;;;;;47.50;23.00;;;;;;;0.11;76.93;101503.55;207031;1318;139520;-71
2022/01/23 19:45:12;;;;;;;51.70;26.50;;;;;;;0.08;76.80;101508.70;207571;1318;139563;-72
2022/01/23 19:50:31;;;;;;;56.60;26.70;;;;;;;0.00;76.55;101511.82;207601;1318;141857;-71
2022/01/23 19:55:37;;;;;;;50.90;24.70;;;;;;;-0.07;76.72;101518.30;208256;1318;141025;-71
2022/01/23 20:00:42;;;;;;;51.70;26.80;;;;;;;-0.01;77.07;101519.90;207336;1318;140708;-70
2022/01/23 20:05:51;;;;;;;49.20;26.90;;;;;;;0.04;77.22;101522.66;206714;1318;139582;-69
2022/01/23 20:11:19;;;;;;;51.80;26.70;;;;;;;0.05;77.07;101528.58;208389;1318;141780;-70
2022/01/23 20:16:22;;;;;;;;;;;;;;;0.07;77.32;101528.55;207772;1318;140605;-68
2022/01/23 20:21:24;;;;;;;57.00;24.60;;;;;;;0.12;77.46;101537.55;208414;1318;127058;-67
2022/01/23 20:26:48;;;;;;;42.00;21.80;;;;;;;0.06;76.77;101538.64;209025;1318;140189;-69
2022/01/23 20:31:52;;;;;;;43.80;23.80;;;;;;;-0.07;76.88;101543.80;209126;1318;139992;-73
2022/01/23 20:37:00;;;;;;;46.10;25.40;;;;;;;-0.11;77.16;101548.52;208813;1319;140304;-70
2022/01/23 20:42:03;;;;;;;51.90;25.20;;;;;;;-0.12;77.12;101553.01;209036;1319;140775;-70
2022/01/23 20:47:06;;;;;;;58.40;28.50;;;;;;;-0.15;76.97;101550.77;209660;1318;141808;-69
2022/01/23 20:52:30;;;;;;;59.90;33.50;;;;;;;-0.10;76.80;101548.78;208903;1318;141144;-70
2022/01/23 20:57:34;;;;;;;75.20;38.30;;;;;;;-0.04;77.18;101551.98;208645;1318;139945;-67
2022/01/23 21:02:50;;;;;;;69.30;36.80;;;;;;;-0.05;77.14;101559.96;207755;1317;140663;-68
2022/01/23 21:07:57;;;;;;;56.90;32.80;;;;;;;-0.08;77.25;101566.27;206524;1318;140531;-70
2022/01/23 21:13:03;;;;;;;58.50;31.10;;;;;;;-0.05;77.63;101577.57;207297;1318;626953;-71
2022/01/23 21:39:35;;;;;;;66.70;36.00;;;;;;;-0.01;77.62;101590.02;207404;1318;141745;-70
2022/01/23 21:44:37;;;;;;;59.90;32.20;;;;;;;-0.01;77.61;101604.71;207474;1318;139946;-68
2022/01/23 21:49:44;;;;;;;67.10;33.10;;;;;;;0.04;77.45;101597.52;207245;1318;140192;-66
2022/01/23 21:54:48;;;;;;;72.30;38.60;;;;;;;-0.04;77.33;101603.70;207834;1318;140070;-68
2022/01/23 21:59:51;;;;;;;70.90;38.30;;;;;;;-0.09;77.71;101619.66;206665;1318;141356;-68
2022/01/23 22:04:57;;;;;;;79.50;41.90;;;;;;;-0.08;77.89;101628.36;207126;1318;139607;-67
2022/01/23 22:10:31;;;;;;;83.40;40.80;;;;;;;-0.14;77.76;101627.90;207425;1319;140487;-68
2022/01/23 22:21:04;;;;;;;87.50;42.40;;;;;;;-0.13;77.96;101618.20;208870;1317;141428;-69
2022/01/23 22:31:31;;;;;;;98.60;46.80;;;;;;;-0.29;77.53;101610.23;207149;1317;139730;-68
2022/01/23 22:36:35;;;;;;;98.90;46.00;;;;;;;-0.33;78.00;101600.58;208949;1319;140163;-66
2022/01/23 22:41:39;;;;;;;85.60;41.00;;;;;;;-0.25;78.04;101608.05;208586;1319;139918;-70
2022/01/23 22:46:43;;;;;;;90.90;44.90;;;;;;;-0.23;77.81;101603.13;209004;1319;140321;-70
2022/01/23 22:51:54;;;;;;;93.00;47.90;;;;;;;-0.21;78.24;101599.80;208699;1318;140260;-69
2022/01/23 22:56:57;;;;;;;96.00;48.90;;;;;;;-0.14;78.33;101595.59;208114;1318;140542;-68
2022/01/23 23:02:00;;;;;;;95.40;44.40;;;;;;;-0.08;78.26;101591.46;207222;1318;142093;-67
2022/01/23 23:07:06;;;;;;;95.40;45.60;;;;;;;-0.03;77.99;101586.48;206736;1318;140279;-68
2022/01/23 23:12:12;;;;;;;98.00;46.30;;;;;;;-0.02;78.17;101596.23;207661;1318;141145;-69
2022/01/23 23:17:20;;;;;;;83.40;42.40;;;;;;;-0.04;77.84;101613.20;208046;1318;139983;-68
2022/01/23 23:22:23;;;;;;;92.30;44.10;;;;;;;-0.10;77.96;101622.92;207782;1318;140011;-66
2022/01/23 23:27:27;;;;;;;92.30;43.70;;;;;;;-0.12;78.23;101623.75;208363;1315;141923;-69
2022/01/23 23:32:37;;;;;;;90.70;46.20;;;;;;;-0.11;78.05;101624.35;206820;1318;139637;-66
2022/01/23 23:37:41;;;;;;;98.10;45.70;;;;;;;-0.05;77.96;101615.67;207417;1318;140924;-71
2022/01/23 23:42:56;;;;;;;93.60;43.50;;;;;;;-0.05;77.87;101612.94;207183;1317;140611;-68
2022/01/23 23:48:00;;;;;;;84.50;41.50;;;;;;;-0.07;78.02;101615.31;207697;1318;231489;-68
2022/01/23 23:53:03;;;;;;;80.80;39.80;;;;;;;-0.10;77.89;101611.53;207384;1318;140231;-66
2022/01/23 23:58:09;;;;;;;83.30;42.80;;;;;;;-0.14;78.12;101619.03;207915;1318;140480;-68
